sensor_id;sensor_type;location;lat;lon;timestamp;pressure;altitude;pressure_sealevel;temperature;humidity
13581;BME280;6861;46.170;7.222;2023-05-29T00:01:50;95729.72;;;22.32;40.22
13581;BME280;6861;46.170;7.222;2023-05-29T00:04:18;95728.69;;;22.36;39.71
13581;BME280;6861;46.170;7.222;2023-05-29T00:06:48;95733.31;;;22.39;40.03
13581;BME280;6861;46.170;7.222;2023-05-29T00:09:19;95732.53;;;22.39;40.20
13581;BME280;6861;46.170;7.222;2023-05-29T00:11:47;95737.03;;;22.35;40.19
13581;BME280;6861;46.170;7.222;2023-05-29T00:14:18;95738.41;;;22.29;40.58
13581;BME280;6861;46.170;7.222;2023-05-29T00:16:47;95732.56;;;22.23;40.34
13581;BME280;6861;46.170;7.222;2023-05-29T00:19:16;95740.47;;;22.19;40.23
13581;BME280;6861;46.170;7.222;2023-05-29T00:21:46;95733.84;;;22.13;41.09
13581;BME280;6861;46.170;7.222;2023-05-29T00:24:15;95734.78;;;22.05;41.22
13581;BME280;6861;46.170;7.222;2023-05-29T00:26:45;95735.25;;;21.95;41.09
13581;BME280;6861;46.170;7.222;2023-05-29T00:29:13;95728.97;;;21.87;41.70
13581;BME280;6861;46.170;7.222;2023-05-29T00:31:41;95736.88;;;21.84;41.68
13581;BME280;6861;46.170;7.222;2023-05-29T00:34:10;95736.25;;;21.75;41.74
13581;BME280;6861;46.170;7.222;2023-05-29T00:36:38;95737.19;;;21.67;41.64
13581;BME280;6861;46.170;7.222;2023-05-29T00:39:06;95746.22;;;21.62;41.61
13581;BME280;6861;46.170;7.222;2023-05-29T00:41:36;95741.06;;;21.53;41.28
13581;BME280;6861;46.170;7.222;2023-05-29T00:44:05;95740.88;;;21.46;41.82
13581;BME280;6861;46.170;7.222;2023-05-29T00:46:35;95738.44;;;21.41;41.73
13581;BME280;6861;46.170;7.222;2023-05-29T00:49:04;95742.69;;;21.30;41.85
13581;BME280;6861;46.170;7.222;2023-05-29T00:51:33;95742.03;;;21.21;41.37
13581;BME280;6861;46.170;7.222;2023-05-29T00:54:04;95744.06;;;21.12;41.59
13581;BME280;6861;46.170;7.222;2023-05-29T00:56:32;95745.63;;;21.01;41.68
13581;BME280;6861;46.170;7.222;2023-05-29T00:59:01;95743.09;;;20.92;41.89
13581;BME280;6861;46.170;7.222;2023-05-29T01:01:32;95742.13;;;20.84;42.02
13581;BME280;6861;46.170;7.222;2023-05-29T01:04:00;95742.38;;;20.79;41.97
13581;BME280;6861;46.170;7.222;2023-05-29T01:06:30;95742.00;;;20.81;42.08
13581;BME280;6861;46.170;7.222;2023-05-29T01:08:59;95735.06;;;20.76;42.03
13581;BME280;6861;46.170;7.222;2023-05-29T01:11:34;95740.38;;;20.76;42.25
13581;BME280;6861;46.170;7.222;2023-05-29T01:14:09;95746.81;;;20.75;42.17
13581;BME280;6861;46.170;7.222;2023-05-29T01:16:46;95744.06;;;20.72;42.40
13581;BME280;6861;46.170;7.222;2023-05-29T01:19:26;95742.72;;;20.66;42.43
13581;BME280;6861;46.170;7.222;2023-05-29T01:22:08;95742.63;;;20.62;42.48
13581;BME280;6861;46.170;7.222;2023-05-29T01:24:49;95734.88;;;20.57;42.76
13581;BME280;6861;46.170;7.222;2023-05-29T01:27:21;95738.63;;;20.56;42.80
13581;BME280;6861;46.170;7.222;2023-05-29T01:29:52;95741.28;;;20.56;42.60
13581;BME280;6861;46.170;7.222;2023-05-29T01:32:24;95747.16;;;20.61;42.53
13581;BME280;6861;46.170;7.222;2023-05-29T01:34:52;95743.50;;;20.66;42.46
13581;BME280;6861;46.170;7.222;2023-05-29T01:37:21;95746.28;;;20.70;42.25
13581;BME280;6861;46.170;7.222;2023-05-29T01:39:49;95741.63;;;20.67;42.45
13581;BME280;6861;46.170;7.222;2023-05-29T01:42:17;95745.28;;;20.62;42.30
13581;BME280;6861;46.170;7.222;2023-05-29T01:44:48;95746.28;;;20.57;42.26
13581;BME280;6861;46.170;7.222;2023-05-29T01:47:17;95739.97;;;20.50;42.38
13581;BME280;6861;46.170;7.222;2023-05-29T01:49:47;95740.19;;;20.45;42.57
13581;BME280;6861;46.170;7.222;2023-05-29T01:52:17;95746.16;;;20.42;42.72
13581;BME280;6861;46.170;7.222;2023-05-29T01:54:46;95739.94;;;20.38;42.46
13581;BME280;6861;46.170;7.222;2023-05-29T01:57:14;95745.06;;;20.43;42.62
13581;BME280;6861;46.170;7.222;2023-05-29T01:59:42;95750.16;;;20.48;43.30
13581;BME280;6861;46.170;7.222;2023-05-29T02:02:12;95749.38;;;20.47;43.61
13581;BME280;6861;46.170;7.222;2023-05-29T02:04:40;95747.06;;;20.46;43.55
13581;BME280;6861;46.170;7.222;2023-05-29T02:07:08;95754.59;;;20.44;43.96
13581;BME280;6861;46.170;7.222;2023-05-29T02:09:38;95757.47;;;20.39;44.17
13581;BME280;6861;46.170;7.222;2023-05-29T02:12:07;95754.34;;;20.37;43.89
13581;BME280;6861;46.170;7.222;2023-05-29T02:14:35;95746.69;;;20.35;43.97
13581;BME280;6861;46.170;7.222;2023-05-29T02:17:04;95753.66;;;20.27;44.22
13581;BME280;6861;46.170;7.222;2023-05-29T02:19:34;95747.13;;;20.25;43.88
13581;BME280;6861;46.170;7.222;2023-05-29T02:22:03;95740.16;;;20.20;44.19
13581;BME280;6861;46.170;7.222;2023-05-29T02:24:32;95745.69;;;20.15;44.01
13581;BME280;6861;46.170;7.222;2023-05-29T02:27:00;95752.09;;;20.14;44.43
13581;BME280;6861;46.170;7.222;2023-05-29T02:29:29;95752.75;;;20.11;44.01
13581;BME280;6861;46.170;7.222;2023-05-29T02:31:58;95752.97;;;20.06;44.06
13581;BME280;6861;46.170;7.222;2023-05-29T02:34:26;95752.53;;;20.04;44.15
13581;BME280;6861;46.170;7.222;2023-05-29T02:36:57;95752.75;;;19.99;44.68
13581;BME280;6861;46.170;7.222;2023-05-29T02:39:25;95750.28;;;19.94;44.78
13581;BME280;6861;46.170;7.222;2023-05-29T02:41:54;95751.19;;;19.86;44.98
13581;BME280;6861;46.170;7.222;2023-05-29T02:44:22;95752.25;;;19.73;45.36
13581;BME280;6861;46.170;7.222;2023-05-29T02:46:50;95745.03;;;19.61;45.47
13581;BME280;6861;46.170;7.222;2023-05-29T02:49:19;95753.97;;;19.56;45.37
13581;BME280;6861;46.170;7.222;2023-05-29T02:51:47;95750.44;;;19.52;44.88
13581;BME280;6861;46.170;7.222;2023-05-29T02:54:17;95749.16;;;19.50;44.89
13581;BME280;6861;46.170;7.222;2023-05-29T02:56:45;95748.16;;;19.42;45.16
13581;BME280;6861;46.170;7.222;2023-05-29T02:59:13;95756.19;;;19.33;45.37
13581;BME280;6861;46.170;7.222;2023-05-29T03:01:44;95746.72;;;19.24;45.27
13581;BME280;6861;46.170;7.222;2023-05-29T03:04:14;95752.09;;;19.15;45.67
13581;BME280;6861;46.170;7.222;2023-05-29T03:06:44;95751.66;;;19.13;45.67
13581;BME280;6861;46.170;7.222;2023-05-29T03:09:12;95748.88;;;19.10;45.89
13581;BME280;6861;46.170;7.222;2023-05-29T03:11:42;95752.53;;;19.05;45.52
13581;BME280;6861;46.170;7.222;2023-05-29T03:14:11;95749.63;;;18.98;45.76
13581;BME280;6861;46.170;7.222;2023-05-29T03:16:39;95743.72;;;18.92;45.87
13581;BME280;6861;46.170;7.222;2023-05-29T03:19:08;95747.03;;;18.89;45.63
13581;BME280;6861;46.170;7.222;2023-05-29T03:21:36;95750.31;;;18.86;45.74
13581;BME280;6861;46.170;7.222;2023-05-29T03:24:05;95747.66;;;18.86;45.61
13581;BME280;6861;46.170;7.222;2023-05-29T03:26:33;95749.72;;;18.81;45.95
13581;BME280;6861;46.170;7.222;2023-05-29T03:29:04;95750.81;;;18.80;45.98
13581;BME280;6861;46.170;7.222;2023-05-29T03:31:34;95745.72;;;18.75;46.41
13581;BME280;6861;46.170;7.222;2023-05-29T03:34:02;95742.47;;;18.69;45.96
13581;BME280;6861;46.170;7.222;2023-05-29T03:36:30;95748.41;;;18.66;46.22
13581;BME280;6861;46.170;7.222;2023-05-29T03:38:58;95744.22;;;18.65;46.35
13581;BME280;6861;46.170;7.222;2023-05-29T03:41:27;95748.72;;;18.64;46.13
13581;BME280;6861;46.170;7.222;2023-05-29T03:43:55;95752.81;;;18.62;45.90
13581;BME280;6861;46.170;7.222;2023-05-29T03:46:25;95756.56;;;18.61;46.54
13581;BME280;6861;46.170;7.222;2023-05-29T03:48:54;95742.81;;;18.59;46.40
13581;BME280;6861;46.170;7.222;2023-05-29T03:51:22;95747.34;;;18.58;46.19
13581;BME280;6861;46.170;7.222;2023-05-29T03:53:50;95753.41;;;18.59;46.51
13581;BME280;6861;46.170;7.222;2023-05-29T03:56:18;95757.94;;;18.58;46.81
13581;BME280;6861;46.170;7.222;2023-05-29T03:58:46;95754.69;;;18.53;46.63
13581;BME280;6861;46.170;7.222;2023-05-29T04:01:15;95758.78;;;18.42;46.78
13581;BME280;6861;46.170;7.222;2023-05-29T04:03:44;95766.66;;;18.29;46.92
13581;BME280;6861;46.170;7.222;2023-05-29T04:06:13;95767.44;;;18.21;47.27
13581;BME280;6861;46.170;7.222;2023-05-29T04:08:41;95769.22;;;18.17;47.84
13581;BME280;6861;46.170;7.222;2023-05-29T04:11:09;95775.16;;;18.14;47.80
13581;BME280;6861;46.170;7.222;2023-05-29T04:13:39;95773.59;;;18.13;47.31
13581;BME280;6861;46.170;7.222;2023-05-29T04:16:07;95776.41;;;18.08;47.19
13581;BME280;6861;46.170;7.222;2023-05-29T04:18:35;95775.94;;;18.06;47.30
13581;BME280;6861;46.170;7.222;2023-05-29T04:21:05;95777.97;;;18.09;47.13
13581;BME280;6861;46.170;7.222;2023-05-29T04:23:33;95782.16;;;18.10;47.41
13581;BME280;6861;46.170;7.222;2023-05-29T04:26:02;95783.72;;;18.11;47.53
13581;BME280;6861;46.170;7.222;2023-05-29T04:28:30;95786.38;;;18.11;47.05
13581;BME280;6861;46.170;7.222;2023-05-29T04:30:58;95789.00;;;18.11;47.25
13581;BME280;6861;46.170;7.222;2023-05-29T04:33:27;95795.09;;;18.12;47.24
13581;BME280;6861;46.170;7.222;2023-05-29T04:35:56;95800.06;;;18.13;47.36
13581;BME280;6861;46.170;7.222;2023-05-29T04:38:26;95802.72;;;18.13;46.89
13581;BME280;6861;46.170;7.222;2023-05-29T04:40:56;95801.63;;;18.14;46.86
13581;BME280;6861;46.170;7.222;2023-05-29T04:43:25;95802.25;;;18.11;46.97
13581;BME280;6861;46.170;7.222;2023-05-29T04:45:53;95802.72;;;18.13;47.40
13581;BME280;6861;46.170;7.222;2023-05-29T04:48:21;95809.88;;;18.13;47.55
13581;BME280;6861;46.170;7.222;2023-05-29T04:50:50;95806.91;;;18.14;47.67
13581;BME280;6861;46.170;7.222;2023-05-29T04:53:18;95813.91;;;18.19;47.07
13581;BME280;6861;46.170;7.222;2023-05-29T04:55:48;95811.84;;;18.24;47.46
13581;BME280;6861;46.170;7.222;2023-05-29T04:58:16;95814.47;;;18.33;47.27
13581;BME280;6861;46.170;7.222;2023-05-29T05:00:44;95813.19;;;18.39;47.38
13581;BME280;6861;46.170;7.222;2023-05-29T05:03:14;95819.56;;;18.47;46.76
13581;BME280;6861;46.170;7.222;2023-05-29T05:05:43;95815.19;;;18.51;47.18
13581;BME280;6861;46.170;7.222;2023-05-29T05:08:12;95814.53;;;18.54;46.74
13581;BME280;6861;46.170;7.222;2023-05-29T05:10:40;95823.25;;;18.63;46.97
13581;BME280;6861;46.170;7.222;2023-05-29T05:13:09;95818.44;;;18.94;46.92
13581;BME280;6861;46.170;7.222;2023-05-29T05:15:39;95826.41;;;19.36;45.87
13581;BME280;6861;46.170;7.222;2023-05-29T05:18:07;95827.09;;;19.87;45.26
13581;BME280;6861;46.170;7.222;2023-05-29T05:20:35;95827.47;;;20.43;44.51
13581;BME280;6861;46.170;7.222;2023-05-29T05:23:03;95822.44;;;21.02;43.74
13581;BME280;6861;46.170;7.222;2023-05-29T05:25:32;95820.69;;;21.58;42.67
13581;BME280;6861;46.170;7.222;2023-05-29T05:28:01;95825.03;;;22.07;42.19
13581;BME280;6861;46.170;7.222;2023-05-29T05:30:32;95823.97;;;22.23;41.42
13581;BME280;6861;46.170;7.222;2023-05-29T05:33:00;95825.59;;;22.44;40.81
13581;BME280;6861;46.170;7.222;2023-05-29T05:35:29;95829.09;;;22.64;40.90
13581;BME280;6861;46.170;7.222;2023-05-29T05:37:57;95831.81;;;22.79;40.52
13581;BME280;6861;46.170;7.222;2023-05-29T05:40:25;95820.59;;;22.89;39.70
13581;BME280;6861;46.170;7.222;2023-05-29T05:42:54;95824.78;;;23.06;39.74
13581;BME280;6861;46.170;7.222;2023-05-29T05:45:22;95821.22;;;23.18;39.25
13581;BME280;6861;46.170;7.222;2023-05-29T05:47:51;95828.97;;;23.42;39.38
13581;BME280;6861;46.170;7.222;2023-05-29T05:50:20;95837.16;;;23.69;38.35
13581;BME280;6861;46.170;7.222;2023-05-29T05:52:48;95831.13;;;23.91;38.49
13581;BME280;6861;46.170;7.222;2023-05-29T05:55:17;95831.88;;;24.11;38.05
13581;BME280;6861;46.170;7.222;2023-05-29T05:57:45;95831.00;;;24.49;37.40
13581;BME280;6861;46.170;7.222;2023-05-29T06:00:15;95833.53;;;24.88;36.89
13581;BME280;6861;46.170;7.222;2023-05-29T06:02:43;95831.63;;;25.11;36.47
13581;BME280;6861;46.170;7.222;2023-05-29T06:05:13;95829.25;;;25.36;35.80
13581;BME280;6861;46.170;7.222;2023-05-29T06:07:42;95833.59;;;25.74;35.73
13581;BME280;6861;46.170;7.222;2023-05-29T06:10:10;95833.63;;;26.14;35.17
13581;BME280;6861;46.170;7.222;2023-05-29T06:12:39;95828.69;;;26.57;34.27
13581;BME280;6861;46.170;7.222;2023-05-29T06:15:08;95829.69;;;26.90;34.09
13581;BME280;6861;46.170;7.222;2023-05-29T06:17:37;95830.69;;;27.22;33.38
13581;BME280;6861;46.170;7.222;2023-05-29T06:20:06;95833.09;;;27.41;33.61
13581;BME280;6861;46.170;7.222;2023-05-29T06:22:38;95828.56;;;27.56;33.25
13581;BME280;6861;46.170;7.222;2023-05-29T06:25:07;95825.19;;;27.73;33.25
13581;BME280;6861;46.170;7.222;2023-05-29T06:27:36;95827.94;;;27.91;32.12
13581;BME280;6861;46.170;7.222;2023-05-29T06:30:05;95821.13;;;28.26;31.67
13581;BME280;6861;46.170;7.222;2023-05-29T06:32:33;95819.59;;;28.67;31.98
13581;BME280;6861;46.170;7.222;2023-05-29T06:35:01;95810.34;;;29.18;31.34
13581;BME280;6861;46.170;7.222;2023-05-29T06:37:30;95820.28;;;29.50;30.58
13581;BME280;6861;46.170;7.222;2023-05-29T06:40:00;95818.69;;;29.59;30.04
13581;BME280;6861;46.170;7.222;2023-05-29T06:42:28;95812.81;;;29.82;30.17
13581;BME280;6861;46.170;7.222;2023-05-29T06:44:56;95813.38;;;30.29;29.33
13581;BME280;6861;46.170;7.222;2023-05-29T06:47:24;95805.09;;;30.50;28.87
13581;BME280;6861;46.170;7.222;2023-05-29T06:49:53;95798.44;;;31.07;28.07
13581;BME280;6861;46.170;7.222;2023-05-29T06:52:21;95807.94;;;31.59;27.37
13581;BME280;6861;46.170;7.222;2023-05-29T06:54:49;95799.47;;;32.15;26.89
13581;BME280;6861;46.170;7.222;2023-05-29T06:57:19;95794.66;;;32.80;26.55
13581;BME280;6861;46.170;7.222;2023-05-29T06:59:47;95794.47;;;33.34;25.77
13581;BME280;6861;46.170;7.222;2023-05-29T07:02:15;95794.88;;;33.72;25.10
13581;BME280;6861;46.170;7.222;2023-05-29T07:04:43;95794.63;;;34.02;24.66
13581;BME280;6861;46.170;7.222;2023-05-29T07:07:12;95791.47;;;34.40;24.18
13581;BME280;6861;46.170;7.222;2023-05-29T07:09:40;95791.00;;;34.74;23.72
13581;BME280;6861;46.170;7.222;2023-05-29T07:12:08;95789.81;;;34.91;22.95
13581;BME280;6861;46.170;7.222;2023-05-29T07:14:38;95800.09;;;35.29;22.68
13581;BME280;6861;46.170;7.222;2023-05-29T07:17:06;95797.03;;;35.43;22.46
13581;BME280;6861;46.170;7.222;2023-05-29T07:19:34;95786.72;;;35.63;22.20
13581;BME280;6861;46.170;7.222;2023-05-29T07:22:02;95788.78;;;35.72;22.13
13581;BME280;6861;46.170;7.222;2023-05-29T07:24:30;95789.31;;;36.21;21.79
13581;BME280;6861;46.170;7.222;2023-05-29T07:26:59;95780.97;;;36.63;21.27
13581;BME280;6861;46.170;7.222;2023-05-29T07:29:27;95781.22;;;37.03;20.96
13581;BME280;6861;46.170;7.222;2023-05-29T07:31:57;95781.38;;;37.43;20.36
13581;BME280;6861;46.170;7.222;2023-05-29T07:34:25;95778.00;;;37.61;20.47
13581;BME280;6861;46.170;7.222;2023-05-29T07:36:57;95782.66;;;38.04;19.67
13581;BME280;6861;46.170;7.222;2023-05-29T07:39:26;95780.50;;;38.39;19.47
13581;BME280;6861;46.170;7.222;2023-05-29T07:41:55;95772.41;;;38.85;18.93
13581;BME280;6861;46.170;7.222;2023-05-29T07:44:23;95766.47;;;39.32;18.32
13581;BME280;6861;46.170;7.222;2023-05-29T07:46:51;95765.09;;;39.64;17.68
13581;BME280;6861;46.170;7.222;2023-05-29T07:49:21;95766.56;;;39.83;17.48
13581;BME280;6861;46.170;7.222;2023-05-29T07:51:49;95766.59;;;39.74;17.42
13581;BME280;6861;46.170;7.222;2023-05-29T07:54:18;95770.03;;;39.93;17.31
13581;BME280;6861;46.170;7.222;2023-05-29T07:56:47;95755.63;;;40.16;17.36
13581;BME280;6861;46.170;7.222;2023-05-29T07:59:15;95758.06;;;40.47;17.05
13581;BME280;6861;46.170;7.222;2023-05-29T08:01:43;95758.06;;;40.47;16.77
13581;BME280;6861;46.170;7.222;2023-05-29T08:04:12;95741.19;;;40.87;16.41
13581;BME280;6861;46.170;7.222;2023-05-29T08:06:42;95733.84;;;41.08;15.92
13581;BME280;6861;46.170;7.222;2023-05-29T08:09:10;95736.47;;;41.56;15.92
13581;BME280;6861;46.170;7.222;2023-05-29T08:11:38;95741.44;;;42.16;15.50
13581;BME280;6861;46.170;7.222;2023-05-29T08:14:06;95737.47;;;42.78;14.85
13581;BME280;6861;46.170;7.222;2023-05-29T08:16:35;95727.91;;;43.40;14.39
13581;BME280;6861;46.170;7.222;2023-05-29T08:19:03;95732.09;;;43.62;14.51
13581;BME280;6861;46.170;7.222;2023-05-29T08:21:31;95725.28;;;44.20;13.97
13581;BME280;6861;46.170;7.222;2023-05-29T08:24:02;95720.78;;;44.76;13.91
13581;BME280;6861;46.170;7.222;2023-05-29T08:26:31;95731.44;;;45.17;13.57
13581;BME280;6861;46.170;7.222;2023-05-29T08:29:00;95722.69;;;45.24;13.36
13581;BME280;6861;46.170;7.222;2023-05-29T08:31:29;95719.63;;;44.94;13.40
13581;BME280;6861;46.170;7.222;2023-05-29T08:33:58;95717.69;;;44.52;13.20
13581;BME280;6861;46.170;7.222;2023-05-29T08:36:26;95717.81;;;44.32;13.34
13581;BME280;6861;46.170;7.222;2023-05-29T08:38:55;95717.53;;;44.30;13.75
13581;BME280;6861;46.170;7.222;2023-05-29T08:41:29;95715.69;;;44.58;13.73
13581;BME280;6861;46.170;7.222;2023-05-29T08:44:03;95715.78;;;44.81;13.75
13581;BME280;6861;46.170;7.222;2023-05-29T08:46:33;95709.59;;;44.97;13.11
13581;BME280;6861;46.170;7.222;2023-05-29T08:49:02;95712.09;;;44.95;12.95
13581;BME280;6861;46.170;7.222;2023-05-29T08:51:32;95715.41;;;45.32;13.10
13581;BME280;6861;46.170;7.222;2023-05-29T08:54:04;95709.88;;;45.32;12.64
13581;BME280;6861;46.170;7.222;2023-05-29T08:56:35;95715.97;;;45.59;12.40
13581;BME280;6861;46.170;7.222;2023-05-29T08:59:04;95707.91;;;45.50;12.12
13581;BME280;6861;46.170;7.222;2023-05-29T09:01:34;95707.88;;;45.38;11.80
13581;BME280;6861;46.170;7.222;2023-05-29T09:04:03;95705.63;;;45.42;12.24
13581;BME280;6861;46.170;7.222;2023-05-29T09:06:32;95706.41;;;45.82;12.25
13581;BME280;6861;46.170;7.222;2023-05-29T09:09:00;95712.19;;;45.84;12.12
13581;BME280;6861;46.170;7.222;2023-05-29T09:11:28;95713.66;;;45.46;11.99
13581;BME280;6861;46.170;7.222;2023-05-29T09:13:58;95703.63;;;45.49;12.61
13581;BME280;6861;46.170;7.222;2023-05-29T09:16:27;95710.41;;;45.92;12.11
13581;BME280;6861;46.170;7.222;2023-05-29T09:19:04;95704.81;;;46.37;11.81
13581;BME280;6861;46.170;7.222;2023-05-29T09:21:33;95697.03;;;46.88;11.93
13581;BME280;6861;46.170;7.222;2023-05-29T09:24:07;95692.13;;;47.52;11.71
13581;BME280;6861;46.170;7.222;2023-05-29T09:26:35;95698.88;;;47.86;11.53
13581;BME280;6861;46.170;7.222;2023-05-29T09:29:05;95693.31;;;48.11;11.39
13581;BME280;6861;46.170;7.222;2023-05-29T09:31:36;95690.53;;;48.11;11.54
13581;BME280;6861;46.170;7.222;2023-05-29T09:34:18;95686.81;;;47.78;10.94
13581;BME280;6861;46.170;7.222;2023-05-29T09:36:46;95691.06;;;47.19;11.55
13581;BME280;6861;46.170;7.222;2023-05-29T09:39:14;95683.91;;;47.35;11.86
13581;BME280;6861;46.170;7.222;2023-05-29T09:41:44;95677.56;;;47.70;11.33
13581;BME280;6861;46.170;7.222;2023-05-29T09:44:15;95685.13;;;47.40;11.44
13581;BME280;6861;46.170;7.222;2023-05-29T09:46:43;95676.47;;;46.78;11.63
13581;BME280;6861;46.170;7.222;2023-05-29T09:49:13;95674.28;;;46.54;12.13
13581;BME280;6861;46.170;7.222;2023-05-29T09:51:45;95661.38;;;46.67;12.29
13581;BME280;6861;46.170;7.222;2023-05-29T09:54:15;95666.78;;;46.43;12.39
13581;BME280;6861;46.170;7.222;2023-05-29T09:56:44;95664.41;;;45.33;12.93
13581;BME280;6861;46.170;7.222;2023-05-29T09:59:15;95658.53;;;44.75;13.52
13581;BME280;6861;46.170;7.222;2023-05-29T10:01:47;95657.31;;;43.48;14.33
13581;BME280;6861;46.170;7.222;2023-05-29T10:04:17;95653.84;;;41.60;15.19
13581;BME280;6861;46.170;7.222;2023-05-29T10:06:46;95645.59;;;40.23;16.52
13581;BME280;6861;46.170;7.222;2023-05-29T10:09:18;95645.13;;;39.17;17.61
13581;BME280;6861;46.170;7.222;2023-05-29T10:11:49;95636.19;;;38.34;18.28
13581;BME280;6861;46.170;7.222;2023-05-29T10:14:19;95642.84;;;37.65;18.85
13581;BME280;6861;46.170;7.222;2023-05-29T10:16:50;95638.28;;;37.00;19.43
13581;BME280;6861;46.170;7.222;2023-05-29T10:19:29;95638.72;;;36.42;20.23
13581;BME280;6861;46.170;7.222;2023-05-29T10:22:01;95635.69;;;35.93;20.79
13581;BME280;6861;46.170;7.222;2023-05-29T10:24:31;95635.59;;;35.46;21.04
13581;BME280;6861;46.170;7.222;2023-05-29T10:26:59;95637.84;;;34.80;21.51
13581;BME280;6861;46.170;7.222;2023-05-29T10:29:34;95624.94;;;34.23;22.62
13581;BME280;6861;46.170;7.222;2023-05-29T10:32:17;95631.91;;;33.59;23.30
13581;BME280;6861;46.170;7.222;2023-05-29T10:34:56;95625.03;;;33.18;23.96
13581;BME280;6861;46.170;7.222;2023-05-29T10:37:33;95619.59;;;32.82;23.70
13581;BME280;6861;46.170;7.222;2023-05-29T10:40:05;95614.34;;;32.72;24.32
13581;BME280;6861;46.170;7.222;2023-05-29T10:42:46;95619.78;;;32.72;24.88
13581;BME280;6861;46.170;7.222;2023-05-29T10:45:51;95616.50;;;32.61;23.89
13581;BME280;6861;46.170;7.222;2023-05-29T10:48:42;95610.94;;;32.48;23.61
13581;BME280;6861;46.170;7.222;2023-05-29T10:51:27;95608.34;;;32.41;23.99
13581;BME280;6861;46.170;7.222;2023-05-29T10:53:57;95608.59;;;32.26;24.58
13581;BME280;6861;46.170;7.222;2023-05-29T10:56:28;95603.53;;;32.29;23.89
13581;BME280;6861;46.170;7.222;2023-05-29T10:58:59;95608.91;;;32.32;24.17
13581;BME280;6861;46.170;7.222;2023-05-29T11:01:30;95604.19;;;32.36;24.51
13581;BME280;6861;46.170;7.222;2023-05-29T11:04:27;95604.13;;;32.40;24.66
13581;BME280;6861;46.170;7.222;2023-05-29T11:06:59;95598.75;;;32.36;24.35
13581;BME280;6861;46.170;7.222;2023-05-29T11:09:30;95609.94;;;32.38;24.85
13581;BME280;6861;46.170;7.222;2023-05-29T11:12:15;95598.97;;;32.45;24.24
13581;BME280;6861;46.170;7.222;2023-05-29T11:15:02;95597.66;;;32.53;23.58
13581;BME280;6861;46.170;7.222;2023-05-29T11:17:45;95603.91;;;32.50;24.00
13581;BME280;6861;46.170;7.222;2023-05-29T11:20:23;95596.28;;;32.45;24.00
13581;BME280;6861;46.170;7.222;2023-05-29T11:23:02;95591.59;;;32.26;24.30
13581;BME280;6861;46.170;7.222;2023-05-29T11:25:34;95588.56;;;32.20;24.33
13581;BME280;6861;46.170;7.222;2023-05-29T11:28:04;95591.25;;;32.24;24.75
13581;BME280;6861;46.170;7.222;2023-05-29T11:30:46;95582.66;;;32.29;24.57
13581;BME280;6861;46.170;7.222;2023-05-29T11:33:24;95572.50;;;32.33;24.74
13581;BME280;6861;46.170;7.222;2023-05-29T11:35:57;95574.75;;;32.38;24.16
13581;BME280;6861;46.170;7.222;2023-05-29T11:38:26;95573.97;;;32.38;24.09
13581;BME280;6861;46.170;7.222;2023-05-29T11:40:54;95573.06;;;32.44;24.13
13581;BME280;6861;46.170;7.222;2023-05-29T11:43:24;95576.13;;;32.46;24.80
13581;BME280;6861;46.170;7.222;2023-05-29T11:45:52;95576.97;;;32.43;25.11
13581;BME280;6861;46.170;7.222;2023-05-29T11:48:21;95574.19;;;32.47;25.02
13581;BME280;6861;46.170;7.222;2023-05-29T11:50:52;95571.34;;;32.54;25.05
13581;BME280;6861;46.170;7.222;2023-05-29T11:53:20;95568.78;;;32.67;24.80
13581;BME280;6861;46.170;7.222;2023-05-29T11:55:48;95563.94;;;32.78;25.25
13581;BME280;6861;46.170;7.222;2023-05-29T11:58:17;95562.19;;;32.87;25.07
13581;BME280;6861;46.170;7.222;2023-05-29T12:00:47;95559.75;;;32.93;24.92
13581;BME280;6861;46.170;7.222;2023-05-29T12:03:17;95558.53;;;32.94;24.50
13581;BME280;6861;46.170;7.222;2023-05-29T12:05:47;95557.75;;;32.94;24.55
13581;BME280;6861;46.170;7.222;2023-05-29T12:08:22;95555.06;;;32.94;24.70
13581;BME280;6861;46.170;7.222;2023-05-29T12:10:52;95549.63;;;32.94;24.82
13581;BME280;6861;46.170;7.222;2023-05-29T12:13:21;95538.47;;;32.92;25.35
13581;BME280;6861;46.170;7.222;2023-05-29T12:15:53;95542.09;;;32.85;25.83
13581;BME280;6861;46.170;7.222;2023-05-29T12:18:22;95539.03;;;32.83;26.01
13581;BME280;6861;46.170;7.222;2023-05-29T12:20:51;95545.66;;;32.82;25.58
13581;BME280;6861;46.170;7.222;2023-05-29T12:23:25;95544.31;;;32.90;25.10
13581;BME280;6861;46.170;7.222;2023-05-29T12:25:54;95537.44;;;33.02;25.24
13581;BME280;6861;46.170;7.222;2023-05-29T12:28:23;95543.41;;;33.13;24.89
13581;BME280;6861;46.170;7.222;2023-05-29T12:30:58;95540.78;;;33.09;25.59
13581;BME280;6861;46.170;7.222;2023-05-29T12:33:31;95537.19;;;32.96;25.79
13581;BME280;6861;46.170;7.222;2023-05-29T12:36:04;95538.34;;;32.79;26.63
13581;BME280;6861;46.170;7.222;2023-05-29T12:38:46;95527.09;;;32.61;26.71
13581;BME280;6861;46.170;7.222;2023-05-29T12:41:27;95528.06;;;32.50;26.58
13581;BME280;6861;46.170;7.222;2023-05-29T12:43:57;95526.53;;;32.49;26.55
13581;BME280;6861;46.170;7.222;2023-05-29T12:46:25;95519.59;;;32.48;26.56
13581;BME280;6861;46.170;7.222;2023-05-29T12:48:54;95519.59;;;32.48;27.27
13581;BME280;6861;46.170;7.222;2023-05-29T12:51:23;95517.72;;;32.45;27.55
13581;BME280;6861;46.170;7.222;2023-05-29T12:53:53;95518.22;;;32.40;27.45
13581;BME280;6861;46.170;7.222;2023-05-29T12:56:22;95527.06;;;32.21;27.04
13581;BME280;6861;46.170;7.222;2023-05-29T12:58:51;95520.19;;;31.97;27.38
13581;BME280;6861;46.170;7.222;2023-05-29T13:01:19;95520.97;;;31.74;27.94
13581;BME280;6861;46.170;7.222;2023-05-29T13:03:49;95520.53;;;31.52;27.90
13581;BME280;6861;46.170;7.222;2023-05-29T13:06:17;95520.03;;;31.34;28.42
13581;BME280;6861;46.170;7.222;2023-05-29T13:08:46;95514.75;;;31.26;28.13
13581;BME280;6861;46.170;7.222;2023-05-29T13:11:15;95509.53;;;31.16;28.54
13581;BME280;6861;46.170;7.222;2023-05-29T13:13:44;95516.50;;;31.13;28.85
13581;BME280;6861;46.170;7.222;2023-05-29T13:16:13;95513.69;;;31.20;28.83
13581;BME280;6861;46.170;7.222;2023-05-29T13:18:41;95507.03;;;31.25;28.54
13581;BME280;6861;46.170;7.222;2023-05-29T13:21:10;95505.34;;;31.35;28.66
13581;BME280;6861;46.170;7.222;2023-05-29T13:23:38;95514.16;;;31.39;28.92
13581;BME280;6861;46.170;7.222;2023-05-29T13:26:06;95508.41;;;31.37;28.48